Time;durP1;ratioP1;P1;durP2;ratioP2;P2;SDS_P1;SDS_P2;PMS_P1;PMS_P2;Temp;Humidity;BMP_temperature;BMP_pressure;BME280_temperature;BME280_humidity;BME280_pressure;Samples;Min_cycle;Max_cycle;Signal;HPM_P1;HPM_P2
2023/07/29 00:01:40;;;;;;;;;;;;;;;22.60;55.26;100660.72;4853784;29;119607;-74
2023/07/29 00:04:09;;;;;;;;;;;;;;;22.58;55.29;100657.34;4850915;29;119588;-74
2023/07/29 00:06:36;;;;;;;;;;;;;;;22.55;55.35;100663.06;4844072;29;124539;-74
2023/07/29 00:09:04;;;;;;;;;;;;;;;22.55;55.35;100663.06;4852628;28;124219;-75
2023/07/29 00:11:33;;;;;;;;;;;;;;;22.52;55.44;100657.94;4852305;29;119204;-74
2023/07/29 00:14:01;;;;;;;;;;;;;;;22.50;55.24;100654.56;4851153;29;119770;-74
2023/07/29 00:16:28;;;;;;;;;;;;;;;22.48;55.29;100640.38;4854849;29;123992;-74
2023/07/29 00:18:55;;;;;;;;;;;;;;;22.47;55.37;100627.84;4855022;28;125008;-74
2023/07/29 00:21:22;;;;;;;;;;;;;;;22.45;55.38;100619.06;4853080;28;119556;-73
2023/07/29 00:23:49;;;;;;;;;;;;;;;22.44;55.39;100606.59;4853049;29;119003;-73
2023/07/29 00:26:16;;;;;;;;;;;;;;;22.42;55.51;100616.69;4854250;29;124269;-73
2023/07/29 00:28:43;;;;;;;;;;;;;;;22.42;55.58;100614.00;4857490;28;125045;-74
2023/07/29 00:31:10;;;;;;;;;;;;;;;22.41;55.49;100610.44;4855400;28;119431;-74
2023/07/29 00:33:37;;;;;;;;;;;;;;;22.41;55.57;100607.72;4854647;29;118275;-74
2023/07/29 00:36:04;;;;;;;;;;;;;;;22.42;55.58;100603.19;4855387;28;123340;-74
2023/07/29 00:38:31;;;;;;;;;;;;;;;22.42;55.53;100603.19;4855536;28;122980;-74
2023/07/29 00:41:03;;;;;;;;;;;;;;;22.41;55.54;100610.44;4854282;28;120142;-74
2023/07/29 00:43:30;;;;;;;;;;;;;;;22.41;55.60;100623.06;4855598;29;119014;-74
2023/07/29 00:45:57;;;;;;;;;;;;;;;22.41;55.57;100628.47;4854659;29;124603;-74
2023/07/29 00:48:25;;;;;;;;;;;;;;;22.41;55.63;100629.31;4853875;29;124484;-74
2023/07/29 00:50:54;;;;;;;;;;;;;;;22.40;55.70;100632.19;4854164;29;119644;-74
2023/07/29 00:53:21;;;;;;;;;;;;;;;22.41;55.69;100628.47;4853355;29;119179;-74
2023/07/29 00:55:49;;;;;;;;;;;;;;;22.41;55.63;100628.47;4847576;28;124235;-74
2023/07/29 00:58:16;;;;;;;;;;;;;;;22.41;55.75;100621.22;4853868;28;124529;-74
2023/07/29 01:00:44;;;;;;;;;;;;;;;22.41;55.75;100613.13;4855039;28;119022;-74
2023/07/29 01:03:11;;;;;;;;;;;;;;;22.41;55.76;100614.97;4852343;29;118685;-74
2023/07/29 01:05:59;;;;;;;;;;;;;;;22.41;55.65;100629.31;4839310;28;123700;-74
2023/07/29 01:08:45;;;;;;;;;;;;;;;22.41;55.72;100612.28;4854375;29;123987;-73
2023/07/29 01:11:27;;;;;;;;;;;;;;;22.39;55.73;100608.88;4851929;29;119544;-73
2023/07/29 01:13:59;;;;;;;;;;;;;;;22.40;55.68;100605.22;4854398;28;117822;-73
2023/07/29 01:16:41;;;;;;;;;;;;;;;22.40;55.65;100594.41;4854995;29;123881;-73
2023/07/29 01:19:16;;;;;;;;;;;;;;;22.38;55.78;100599.09;4853112;29;123991;-73
2023/07/29 01:21:43;;;;;;;;;;;;;;;22.34;55.77;100602.09;4855606;29;119619;-74
2023/07/29 01:24:10;;;;;;;;;;;;;;;22.34;55.86;100603.97;4855638;28;118627;-73
2023/07/29 01:26:38;;;;;;;;;;;;;;;22.34;55.75;100607.50;4848803;29;124584;-73
2023/07/29 01:29:06;;;;;;;;;;;;;;;22.33;55.70;100605.78;4848392;29;124108;-73
2023/07/29 01:31:35;;;;;;;;;;;;;;;22.32;55.75;100612.22;4854702;29;121551;-73
2023/07/29 01:34:09;;;;;;;;;;;;;;;22.31;55.86;100613.19;4853086;29;118947;-73
2023/07/29 01:36:39;;;;;;;;;;;;;;;22.29;55.75;100612.50;4855162;29;124254;-72
2023/07/29 01:39:08;;;;;;;;;;;;;;;22.27;55.75;100601.00;4854819;29;123062;-73
2023/07/29 01:41:35;;;;;;;;;;;;;;;22.25;55.80;100608.41;4855593;29;119733;-73
2023/07/29 01:44:03;;;;;;;;;;;;;;;22.23;55.75;100615.78;4854718;29;118099;-73
2023/07/29 01:46:32;;;;;;;;;;;;;;;22.22;55.95;100600.56;4854097;28;124162;-73
2023/07/29 01:48:59;;;;;;;;;;;;;;;22.21;55.98;100606.97;4855009;28;123551;-73
2023/07/29 01:51:26;;;;;;;;;;;;;;;22.19;55.91;100603.59;4853814;28;118706;-74
2023/07/29 01:53:55;;;;;;;;;;;;;;;22.19;56.06;100603.59;4852507;29;118710;-73
2023/07/29 01:56:22;;;;;;;;;;;;;;;22.18;55.97;100604.56;4853416;29;121941;-73
2023/07/29 01:58:53;;;;;;;;;;;;;;;22.18;56.10;100601.88;4854831;29;123161;-73
2023/07/29 02:01:20;;;;;;;;;;;;;;;22.16;55.98;100599.31;4852809;29;119086;-72
2023/07/29 02:03:53;;;;;;;;;;;;;;;22.16;56.06;100604.72;4855386;28;119062;-73
2023/07/29 02:06:20;;;;;;;;;;;;;;;22.16;56.01;100606.56;4851828;29;124659;-73
2023/07/29 02:08:47;;;;;;;;;;;;;;;22.16;56.16;100606.56;4853008;28;123847;-73
2023/07/29 02:11:14;;;;;;;;;;;;;;;22.15;56.04;100596.78;4854632;29;120020;-73
2023/07/29 02:13:41;;;;;;;;;;;;;;;22.14;56.07;100605.88;4853029;28;118061;-72
2023/07/29 02:16:08;;;;;;;;;;;;;;;22.14;56.15;100605.88;4850556;28;124522;-72
2023/07/29 02:18:35;;;;;;;;;;;;;;;22.14;56.17;100605.88;4851834;29;123026;-73
2023/07/29 02:21:03;;;;;;;;;;;;;;;22.13;56.07;100614.97;4851369;29;120114;-73
2023/07/29 02:23:30;;;;;;;;;;;;;;;22.12;56.16;100597.09;4849730;29;118877;-73
2023/07/29 02:25:57;;;;;;;;;;;;;;;22.13;56.26;100614.97;4850357;29;124424;-73
2023/07/29 02:28:24;;;;;;;;;;;;;;;22.13;56.23;100617.66;4852213;29;123023;-72
2023/07/29 02:31:09;;;;;;;;;;;;;;;22.13;56.30;100620.34;4849972;29;119387;-72
2023/07/29 02:33:36;;;;;;;;;;;;;;;22.11;56.21;100616.97;4854926;29;119151;-72
2023/07/29 02:36:03;;;;;;;;;;;;;;;22.09;56.31;100609.00;4853585;28;123572;-72
2023/07/29 02:38:30;;;;;;;;;;;;;;;22.09;56.29;100597.38;4849404;28;124309;-72
2023/07/29 02:40:57;;;;;;;;;;;;;;;22.09;56.38;100597.38;4849479;29;120169;-72
2023/07/29 02:43:24;;;;;;;;;;;;;;;22.06;56.40;100592.31;4849831;28;118938;-73
2023/07/29 02:45:51;;;;;;;;;;;;;;;22.06;56.31;100592.31;4850145;28;124003;-72
2023/07/29 02:48:18;;;;;;;;;;;;;;;22.04;56.41;100605.06;4853200;29;124298;-72
2023/07/29 02:50:46;;;;;;;;;;;;;;;22.04;56.34;100602.38;4852810;29;119616;-72
2023/07/29 02:53:12;;;;;;;;;;;;;;;22.03;56.21;100603.38;4846279;28;117874;-72
2023/07/29 02:55:40;;;;;;;;;;;;;;;22.02;56.43;100607.06;4853596;29;122999;-72
2023/07/29 02:58:07;;;;;;;;;;;;;;;22.02;56.41;100601.66;4846535;28;123289;-72
2023/07/29 03:00:35;;;;;;;;;;;;;;;22.02;56.38;100590.88;4847597;29;119446;-72
2023/07/29 03:03:02;;;;;;;;;;;;;;;22.05;56.25;100596.81;4853854;29;118071;-72
2023/07/29 03:05:30;;;;;;;;;;;;;;;22.06;56.41;100592.31;4852839;29;124663;-72
2023/07/29 03:07:58;;;;;;;;;;;;;;;22.06;56.33;100597.69;4854086;29;123595;-72
2023/07/29 03:10:25;;;;;;;;;;;;;;;22.07;56.34;100594.00;4851410;29;119516;-72
2023/07/29 03:12:55;;;;;;;;;;;;;;;22.07;56.28;100594.00;4852588;29;118579;-72
2023/07/29 03:15:23;;;;;;;;;;;;;;;22.08;56.30;100595.69;4836109;29;124030;-72
2023/07/29 03:17:51;;;;;;;;;;;;;;;22.07;56.33;100594.00;4852227;29;124079;-72
2023/07/29 03:20:19;;;;;;;;;;;;;;;22.06;56.33;100589.59;4852007;29;118529;-73
2023/07/29 03:22:46;;;;;;;;;;;;;;;22.05;56.32;100577.09;4851897;29;118572;-73
2023/07/29 03:25:13;;;;;;;;;;;;;;;22.04;56.30;100588.88;4852954;29;123467;-73
2023/07/29 03:27:41;;;;;;;;;;;;;;;22.02;56.28;100582.78;4847211;29;123100;-73
2023/07/29 03:30:08;;;;;;;;;;;;;;;21.99;56.30;100585.81;4850154;28;120291;-73
2023/07/29 03:32:35;;;;;;;;;;;;;;;21.97;56.33;100584.09;4851558;29;118086;-73
2023/07/29 03:35:03;;;;;;;;;;;;;;;21.95;56.28;100580.69;4849627;29;124105;-74
2023/07/29 03:37:30;;;;;;;;;;;;;;;21.93;56.35;100582.69;4851499;29;123289;-74
2023/07/29 03:39:57;;;;;;;;;;;;;;;21.92;56.30;100586.38;4850440;28;118741;-74
2023/07/29 03:42:26;;;;;;;;;;;;;;;21.89;56.33;100586.69;4851329;28;118916;-73
2023/07/29 03:44:53;;;;;;;;;;;;;;;21.86;56.23;100587.00;4850916;29;123951;-74
2023/07/29 03:47:20;;;;;;;;;;;;;;;21.83;56.24;100592.69;4849655;28;124929;-74
2023/07/29 03:49:47;;;;;;;;;;;;;;;21.80;56.20;100597.53;4851913;28;119624;-74
2023/07/29 03:52:16;;;;;;;;;;;;;;;21.76;56.41;100591.59;4851893;28;118492;-74
2023/07/29 03:54:43;;;;;;;;;;;;;;;21.73;56.29;100597.25;4852121;29;125860;-74
2023/07/29 03:57:10;;;;;;;;;;;;;;;21.69;56.31;100601.25;4847518;29;123121;-74
2023/07/29 03:59:38;;;;;;;;;;;;;;;21.66;56.34;100612.31;4855270;28;120743;-74
2023/07/29 04:02:05;;;;;;;;;;;;;;;21.61;56.44;100614.63;4851998;28;118647;-74
2023/07/29 04:04:32;;;;;;;;;;;;;;;21.57;56.41;100601.44;4849746;28;123757;-74
2023/07/29 04:07:00;;;;;;;;;;;;;;;21.54;56.45;100598.19;4851535;28;123272;-74
2023/07/29 04:09:27;;;;;;;;;;;;;;;21.50;56.46;100597.63;4851747;29;119833;-74
2023/07/29 04:11:54;;;;;;;;;;;;;;;21.48;56.40;100594.22;4848965;28;118379;-74
2023/07/29 04:14:21;;;;;;;;;;;;;;;21.44;56.51;100582.03;4854102;28;124391;-74
2023/07/29 04:16:49;;;;;;;;;;;;;;;21.42;56.40;100584.00;4853100;28;123730;-74
2023/07/29 04:19:16;;;;;;;;;;;;;;;21.38;56.43;100577.22;4851887;29;119042;-74
2023/07/29 04:21:46;;;;;;;;;;;;;;;21.34;56.40;100565.00;4851566;28;117894;-73
2023/07/29 04:24:13;;;;;;;;;;;;;;;21.32;56.54;100561.59;4850220;29;123194;-74
2023/07/29 04:26:40;;;;;;;;;;;;;;;21.31;56.48;100565.31;4850037;28;123225;-74
2023/07/29 04:29:07;;;;;;;;;;;;;;;21.29;56.62;100568.16;4851614;29;120382;-74
2023/07/29 04:31:34;;;;;;;;;;;;;;;21.28;56.44;100571.81;4851070;28;118262;-74
2023/07/29 04:34:02;;;;;;;;;;;;;;;21.27;56.44;100570.16;4853706;29;124363;-74
2023/07/29 04:36:29;;;;;;;;;;;;;;;21.25;56.42;100555.97;4847957;29;123089;-73
2023/07/29 04:38:56;;;;;;;;;;;;;;;21.24;56.53;100569.59;4845515;29;118865;-74
2023/07/29 04:41:23;;;;;;;;;;;;;;;21.22;56.40;100583.19;4846989;29;119362;-74
2023/07/29 04:43:50;;;;;;;;;;;;;;;21.19;56.52;100600.50;4852634;29;124243;-74
2023/07/29 04:46:17;;;;;;;;;;;;;;;21.18;56.48;100608.72;4851649;28;123097;-74
2023/07/29 04:48:44;;;;;;;;;;;;;;;21.14;56.64;100613.53;4855028;28;120070;-74
2023/07/29 04:51:12;;;;;;;;;;;;;;;21.12;56.52;100626.31;4850859;28;119017;-73
2023/07/29 04:53:40;;;;;;;;;;;;;;;21.09;56.57;100621.19;4839204;29;123214;-73
2023/07/29 04:56:07;;;;;;;;;;;;;;;21.06;56.59;100621.50;4845223;29;124336;-73
2023/07/29 04:58:35;;;;;;;;;;;;;;;21.05;56.63;100622.47;4850883;29;120455;-74
2023/07/29 05:01:03;;;;;;;;;;;;;;;21.04;56.62;100626.19;4850241;28;119600;-74
2023/07/29 05:03:30;;;;;;;;;;;;;;;21.03;56.67;100621.78;4854996;29;123432;-73
2023/07/29 05:05:58;;;;;;;;;;;;;;;21.04;56.63;100626.19;4855715;29;123321;-74
2023/07/29 05:08:26;;;;;;;;;;;;;;;21.03;56.63;100632.53;4855000;29;119287;-73
2023/07/29 05:10:54;;;;;;;;;;;;;;;21.02;56.61;100630.84;4854578;29;118945;-73
2023/07/29 05:13:21;;;;;;;;;;;;;;;21.02;56.68;100622.78;4852974;29;124450;-73
2023/07/29 05:15:48;;;;;;;;;;;;;;;21.03;56.78;100621.78;4855657;28;123275;-74
2023/07/29 05:18:16;;;;;;;;;;;;;;;21.04;56.71;100628.88;4837675;29;118401;-74
2023/07/29 05:20:43;;;;;;;;;;;;;;;21.04;56.77;100634.25;4854762;28;118372;-73
2023/07/29 05:23:10;;;;;;;;;;;;;;;21.05;56.77;100635.94;4850227;29;124704;-73
2023/07/29 05:25:38;;;;;;;;;;;;;;;21.05;56.90;100630.56;4851161;29;124129;-73
2023/07/29 05:28:06;;;;;;;;;;;;;;;21.06;56.81;100636.78;4853954;28;118709;-74
2023/07/29 05:30:37;;;;;;;;;;;;;;;21.07;56.78;100644.72;4855016;28;118810;-73
2023/07/29 05:33:08;;;;;;;;;;;;;;;21.08;56.82;100651.81;4853505;29;124823;-74
2023/07/29 05:35:35;;;;;;;;;;;;;;;21.09;56.72;100658.88;4855031;29;123314;-74
2023/07/29 05:38:05;;;;;;;;;;;;;;;21.08;56.75;100662.59;4854945;29;119531;-74
2023/07/29 05:40:32;;;;;;;;;;;;;;;21.10;56.82;100654.38;4848748;28;121009;-73
2023/07/29 05:42:59;;;;;;;;;;;;;;;21.11;56.86;100656.91;4854680;29;124450;-74
2023/07/29 05:45:26;;;;;;;;;;;;;;;21.12;56.97;100657.78;4839351;29;123739;-74
2023/07/29 05:47:54;;;;;;;;;;;;;;;21.12;56.81;100647.84;4853886;28;119760;-74
2023/07/29 05:50:21;;;;;;;;;;;;;;;21.12;56.81;100647.84;4853190;29;118708;-74
2023/07/29 05:52:48;;;;;;;;;;;;;;;21.13;56.79;100644.16;4854757;28;123519;-74
2023/07/29 05:55:16;;;;;;;;;;;;;;;21.14;56.79;100645.84;4854500;29;124133;-74
2023/07/29 05:57:43;;;;;;;;;;;;;;;21.14;56.78;100640.47;4851017;28;118705;-74
2023/07/29 06:00:10;;;;;;;;;;;;;;;21.16;56.84;100649.25;4854167;29;119049;-74
2023/07/29 06:02:43;;;;;;;;;;;;;;;21.18;56.92;100646.44;4852653;28;126013;-74
2023/07/29 06:05:15;;;;;;;;;;;;;;;21.19;56.79;100648.97;4852198;28;123679;-74
2023/07/29 06:07:44;;;;;;;;;;;;;;;21.19;56.80;100643.59;4850760;28;120471;-74
2023/07/29 06:10:13;;;;;;;;;;;;;;;21.22;56.86;100647.00;4852986;29;119118;-74
2023/07/29 06:12:40;;;;;;;;;;;;;;;21.26;56.85;100653.78;4853813;28;124678;-73
2023/07/29 06:15:07;;;;;;;;;;;;;;;21.30;56.87;100652.50;4848261;29;124246;-74
2023/07/29 06:17:34;;;;;;;;;;;;;;;21.35;56.96;100652.94;4835801;29;120370;-74
2023/07/29 06:20:03;;;;;;;;;;;;;;;21.42;57.04;100654.06;4854262;28;117822;-74
2023/07/29 06:22:30;;;;;;;;;;;;;;;21.48;57.00;100653.50;4854549;29;123436;-74
2023/07/29 06:24:57;;;;;;;;;;;;;;;21.56;57.14;100640.16;4848588;28;125410;-74
2023/07/29 06:27:25;;;;;;;;;;;;;;;21.65;56.99;100637.59;4852240;28;120613;-74
2023/07/29 06:29:52;;;;;;;;;;;;;;;21.72;56.96;100638.72;4850837;28;120278;-74
2023/07/29 06:32:19;;;;;;;;;;;;;;;21.79;56.92;100634.41;4850555;28;124468;-73
2023/07/29 06:34:46;;;;;;;;;;;;;;;21.89;56.97;100640.63;4853876;29;124270;-73
2023/07/29 06:37:13;;;;;;;;;;;;;;;22.00;57.08;100646.81;4854050;29;120420;-73
2023/07/29 06:39:40;;;;;;;;;;;;;;;22.08;56.94;100649.66;4850140;28;120107;-73
2023/07/29 06:42:07;;;;;;;;;;;;;;;22.14;56.93;100644.47;4855548;28;124694;-74
2023/07/29 06:44:35;;;;;;;;;;;;;;;22.23;56.94;100652.69;4853407;29;123231;-73
2023/07/29 06:47:06;;;;;;;;;;;;;;;22.31;56.86;100650.97;4847779;28;119648;-74
2023/07/29 06:49:33;;;;;;;;;;;;;;;22.39;56.90;100642.13;4865850;28;119984;-75
2023/07/29 06:52:00;;;;;;;;;;;;;;;22.46;56.84;100655.88;4859456;28;124413;-75
2023/07/29 06:54:27;;;;;;;;;;;;;;;22.54;56.73;100650.56;4846733;28;123270;-74
2023/07/29 06:56:55;;;;;;;;;;;;;;;22.61;56.91;100659.75;4849990;28;119495;-74
2023/07/29 06:59:24;;;;;;;;;;;;;;;22.68;56.76;100670.81;4849089;29;118501;-75
2023/07/29 07:01:52;;;;;;;;;;;;;;;22.73;56.68;100666.63;4853296;29;124277;-75
2023/07/29 07:04:19;;;;;;;;;;;;;;;22.81;56.78;100662.31;4853576;28;124331;-74
2023/07/29 07:06:46;;;;;;;;;;;;;;;22.84;56.57;100667.41;4852378;28;118788;-73
2023/07/29 07:09:13;;;;;;;;;;;;;;;22.84;56.53;100662.00;4850766;29;118689;-71
2023/07/29 07:11:41;;;;;;;;;;;;;;;22.86;56.50;100660.00;4852563;28;125033;-71
2023/07/29 07:14:08;;;;;;;;;;;;;;;22.87;56.28;100661.72;4851157;29;124571;-71
2023/07/29 07:16:36;;;;;;;;;;;;;;;22.89;56.53;100667.81;4845859;29;120527;-71
2023/07/29 07:19:04;;;;;;;;;;;;;;;22.96;56.64;100660.75;4849048;29;119801;-71
2023/07/29 07:21:32;;;;;;;;;;;;;;;23.05;56.72;100659.88;4847292;29;125188;-72
2023/07/29 07:23:59;;;;;;;;;;;;;;;23.19;56.80;100654.91;4847554;29;123507;-72
2023/07/29 07:26:26;;;;;;;;;;;;;;;23.32;56.88;100660.78;4846402;29;119872;-71
2023/07/29 07:28:54;;;;;;;;;;;;;;;23.46;56.74;100668.31;4851645;28;118638;-72
2023/07/29 07:31:21;;;;;;;;;;;;;;;23.59;56.91;100669.78;4847675;29;124131;-72
2023/07/29 07:33:48;;;;;;;;;;;;;;;23.69;56.56;100678.63;4850569;28;124052;-72
2023/07/29 07:36:15;;;;;;;;;;;;;;;23.75;56.47;100667.16;4848943;29;118507;-72
2023/07/29 07:38:45;;;;;;;;;;;;;;;23.79;56.37;100673.13;4847518;28;117740;-73
2023/07/29 07:41:12;;;;;;;;;;;;;;;23.81;56.13;100677.38;4851645;29;124470;-73
2023/07/29 07:43:39;;;;;;;;;;;;;;;23.82;56.20;100668.25;4852110;28;124504;-73
2023/07/29 07:46:06;;;;;;;;;;;;;;;23.81;56.07;100677.38;4845840;29;120125;-72
2023/07/29 07:48:33;;;;;;;;;;;;;;;23.81;56.12;100671.97;4848331;29;117987;-73
2023/07/29 07:51:00;;;;;;;;;;;;;;;23.83;56.22;100680.78;4842120;28;124390;-72
2023/07/29 07:53:27;;;;;;;;;;;;;;;23.89;56.35;100677.44;4840339;29;124602;-73
2023/07/29 07:55:54;;;;;;;;;;;;;;;23.98;56.30;100683.75;4844020;29;119739;-73
2023/07/29 07:58:21;;;;;;;;;;;;;;;24.04;56.23;100682.25;4849058;28;119054;-73
2023/07/29 08:00:48;;;;;;;;;;;;;;;24.07;56.13;100687.31;4849920;29;124387;-73
2023/07/29 08:03:17;;;;;;;;;;;;;;;24.08;55.88;100684.47;4841072;28;123766;-73
2023/07/29 08:05:44;;;;;;;;;;;;;;;24.10;56.12;100684.31;4865226;28;120913;-73
2023/07/29 08:08:11;;;;;;;;;;;;;;;24.13;56.02;100685.84;4851902;29;118899;-73
2023/07/29 08:10:38;;;;;;;;;;;;;;;24.12;55.77;100685.00;4848768;29;125030;-73
2023/07/29 08:13:05;;;;;;;;;;;;;;;24.10;55.91;100692.44;4846372;29;123477;-73
2023/07/29 08:15:32;;;;;;;;;;;;;;;24.10;55.90;100687.00;4850575;28;118770;-73
2023/07/29 08:17:59;;;;;;;;;;;;;;;24.11;56.33;100677.91;4851339;28;119335;-72
2023/07/29 08:20:27;;;;;;;;;;;;;;;24.17;55.93;100687.22;4849654;28;124496;-73
2023/07/29 08:22:54;;;;;;;;;;;;;;;24.20;55.98;100682.31;4846812;29;124462;-73
2023/07/29 08:25:21;;;;;;;;;;;;;;;24.23;55.91;100682.00;4840057;28;120051;-73
2023/07/29 08:27:48;;;;;;;;;;;;;;;24.29;56.27;100681.34;4844764;29;118835;-73
2023/07/29 08:30:16;;;;;;;;;;;;;;;24.37;56.06;100671.56;4845235;29;125172;-73
2023/07/29 08:32:44;;;;;;;;;;;;;;;24.45;56.09;100679.75;4857452;28;124500;-73
2023/07/29 08:35:12;;;;;;;;;;;;;;;24.54;55.99;100684.16;4844888;29;118713;-73
2023/07/29 08:37:39;;;;;;;;;;;;;;;24.59;56.12;100681.00;4854727;28;119411;-73
2023/07/29 08:40:06;;;;;;;;;;;;;;;24.66;56.23;100692.88;4851884;28;124824;-73
2023/07/29 08:42:34;;;;;;;;;;;;;;;24.72;55.90;100691.34;4852774;29;123837;-73
2023/07/29 08:45:05;;;;;;;;;;;;;;;24.82;56.26;100697.47;4852152;28;119456;-73
2023/07/29 08:47:32;;;;;;;;;;;;;;;24.93;55.98;100702.56;4847000;29;118264;-73
2023/07/29 08:50:01;;;;;;;;;;;;;;;25.01;55.85;100708.00;4844214;28;123419;-73
2023/07/29 08:52:29;;;;;;;;;;;;;;;25.10;55.63;100694.47;4853291;28;124235;-73
2023/07/29 08:54:56;;;;;;;;;;;;;;;25.16;55.93;100693.78;4851661;28;120629;-73
2023/07/29 08:57:23;;;;;;;;;;;;;;;25.23;55.73;100694.84;4851123;28;119817;-73
2023/07/29 08:59:51;;;;;;;;;;;;;;;25.29;55.79;100694.16;4852177;28;124285;-74
2023/07/29 09:02:18;;;;;;;;;;;;;;;25.34;55.37;100685.53;4848733;29;122542;-73
2023/07/29 09:04:46;;;;;;;;;;;;;;;25.38;55.77;100687.72;4855858;29;120466;-74
2023/07/29 09:07:14;;;;;;;;;;;;;;;25.44;55.66;100695.19;4853368;28;118918;-73
2023/07/29 09:09:41;;;;;;;;;;;;;;;25.47;55.42;100690.44;4852811;29;124055;-73
2023/07/29 09:12:08;;;;;;;;;;;;;;;25.53;55.55;100684.34;4855304;28;125596;-73
2023/07/29 09:14:35;;;;;;;;;;;;;;;25.61;55.58;100681.63;4854918;28;119578;-73
2023/07/29 09:17:02;;;;;;;;;;;;;;;25.71;55.71;100690.44;4855259;29;120115;-73
2023/07/29 09:19:32;;;;;;;;;;;;;;;25.79;55.64;100690.41;4853359;28;123936;-73
2023/07/29 09:22:00;;;;;;;;;;;;;;;25.86;55.43;100685.13;4849802;29;124128;-73
2023/07/29 09:24:29;;;;;;;;;;;;;;;25.96;55.69;100674.13;4854742;29;118588;-73
2023/07/29 09:26:57;;;;;;;;;;;;;;;26.10;55.79;100670.66;4848340;28;118962;-73
2023/07/29 09:29:27;;;;;;;;;;;;;;;26.27;55.58;100673.34;4842994;28;123133;-73
2023/07/29 09:32:14;;;;;;;;;;;;;;;26.36;55.28;100675.00;4855390;29;124594;-73
2023/07/29 09:34:41;;;;;;;;;;;;;;;26.38;55.14;100667.50;4853269;28;119601;-73
2023/07/29 09:37:08;;;;;;;;;;;;;;;26.39;54.99;100661.03;4853022;29;119144;-73
2023/07/29 09:39:35;;;;;;;;;;;;;;;26.42;54.97;100658.81;4849896;29;123257;-73
2023/07/29 09:42:02;;;;;;;;;;;;;;;26.45;54.98;100657.63;4855321;28;124255;-73
2023/07/29 09:44:35;;;;;;;;;;;;;;;26.44;54.85;100655.94;4854050;28;119551;-73
2023/07/29 09:47:02;;;;;;;;;;;;;;;26.48;55.07;100640.97;4844052;28;119942;-73
2023/07/29 09:49:34;;;;;;;;;;;;;;;26.56;55.09;100654.53;4850361;28;124307;-73
2023/07/29 09:52:03;;;;;;;;;;;;;;;26.65;54.77;100655.34;4853552;29;123263;-73
2023/07/29 09:54:31;;;;;;;;;;;;;;;26.75;55.15;100655.13;4852236;28;119407;-73
2023/07/29 09:56:58;;;;;;;;;;;;;;;26.87;55.22;100656.38;4850183;29;118345;-73
2023/07/29 09:59:25;;;;;;;;;;;;;;;26.97;55.00;100662.44;4851600;28;125137;-73
2023/07/29 10:01:52;;;;;;;;;;;;;;;27.10;54.57;100660.97;4849481;28;124917;-72
2023/07/29 10:04:19;;;;;;;;;;;;;;;27.17;54.57;100656.50;4850049;29;120096;-73
2023/07/29 10:06:46;;;;;;;;;;;;;;;27.22;54.64;100664.97;4852564;28;118790;-73
2023/07/29 10:09:13;;;;;;;;;;;;;;;27.25;54.33;100669.19;4844132;28;125352;-73
2023/07/29 10:11:41;;;;;;;;;;;;;;;27.23;54.39;100672.09;4850770;28;122876;-72
2023/07/29 10:14:08;;;;;;;;;;;;;;;27.18;54.33;100677.22;4850622;29;120047;-72
2023/07/29 10:16:40;;;;;;;;;;;;;;;27.12;54.00;100672.50;4850051;28;119738;-72
2023/07/29 10:19:07;;;;;;;;;;;;;;;27.09;54.28;100675.63;4852006;29;124397;-73
2023/07/29 10:21:36;;;;;;;;;;;;;;;27.02;54.18;100680.09;4849509;28;124815;-73
2023/07/29 10:24:05;;;;;;;;;;;;;;;26.97;54.13;100676.03;4850302;28;119356;-73
2023/07/29 10:26:33;;;;;;;;;;;;;;;26.95;54.21;100669.91;4852140;29;117849;-72
2023/07/29 10:29:04;;;;;;;;;;;;;;;26.96;53.98;100678.94;4847391;28;124400;-73
2023/07/29 10:31:32;;;;;;;;;;;;;;;26.96;54.07;100674.34;4845104;28;124412;-73
2023/07/29 10:33:59;;;;;;;;;;;;;;;26.97;54.01;100667.00;4844504;29;120691;-73
2023/07/29 10:36:27;;;;;;;;;;;;;;;27.00;54.34;100656.63;4848485;28;119902;-73
2023/07/29 10:38:54;;;;;;;;;;;;;;;27.10;54.31;100666.41;4851755;29;124529;-73
2023/07/29 10:41:22;;;;;;;;;;;;;;;27.19;54.33;100659.88;4845610;28;125167;-73
2023/07/29 10:43:49;;;;;;;;;;;;;;;27.28;54.26;100653.38;4843459;28;118333;-73
2023/07/29 10:46:20;;;;;;;;;;;;;;;27.41;54.26;100657.34;4850881;29;118443;-73
2023/07/29 10:48:50;;;;;;;;;;;;;;;27.51;53.98;100652.50;4851579;28;124023;-73
2023/07/29 10:51:26;;;;;;;;;;;;;;;27.60;54.23;100651.38;4847187;28;124938;-72
2023/07/29 10:53:54;;;;;;;;;;;;;;;27.71;54.07;100637.31;4845877;29;119371;-73
2023/07/29 10:56:26;;;;;;;;;;;;;;;27.82;53.96;100638.75;4850718;29;119455;-73
2023/07/29 10:58:54;;;;;;;;;;;;;;;27.92;54.12;100639.31;4840536;28;124722;-73
2023/07/29 11:01:28;;;;;;;;;;;;;;;28.05;53.96;100643.25;4841588;28;124183;-72
2023/07/29 11:04:23;;;;;;;;;;;;;;;28.21;54.11;100647.66;4841840;28;119587;-73
2023/07/29 11:07:03;;;;;;;;;;;;;;;28.31;53.74;100650.94;4846941;28;118888;-73
2023/07/29 11:09:41;;;;;;;;;;;;;;;28.38;53.39;100646.41;4852716;29;124268;-73
2023/07/29 11:12:27;;;;;;;;;;;;;;;28.43;53.71;100654.88;4852784;29;124242;-73
2023/07/29 11:14:54;;;;;;;;;;;;;;;28.49;53.56;100645.91;4851780;28;118496;-73
2023/07/29 11:17:21;;;;;;;;;;;;;;;28.50;53.48;100647.63;4849127;28;118563;-73
2023/07/29 11:19:50;;;;;;;;;;;;;;;28.46;53.21;100651.78;4852599;29;124178;-73
2023/07/29 11:22:17;;;;;;;;;;;;;;;28.43;53.05;100652.13;4849818;29;123998;-73
2023/07/29 11:24:44;;;;;;;;;;;;;;;28.37;53.15;100647.47;4851235;28;121195;-73
2023/07/29 11:27:12;;;;;;;;;;;;;;;28.32;53.11;100649.91;4849960;29;119378;-73
2023/07/29 11:29:39;;;;;;;;;;;;;;;28.24;52.80;100637.25;4848319;29;123035;-73
2023/07/29 11:32:06;;;;;;;;;;;;;;;28.17;52.64;100640.91;4845394;29;123949;-73
2023/07/29 11:34:33;;;;;;;;;;;;;;;28.07;53.00;100635.78;4847549;29;120070;-73
2023/07/29 11:37:00;;;;;;;;;;;;;;;27.99;53.04;100634.00;4851160;29;117879;-73
2023/07/29 11:39:27;;;;;;;;;;;;;;;27.90;52.61;100635.13;4850425;28;124448;-73
2023/07/29 11:41:54;;;;;;;;;;;;;;;27.81;52.65;100636.22;4851422;28;123352;-73
2023/07/29 11:44:21;;;;;;;;;;;;;;;27.73;53.09;100645.31;4851676;29;119620;-74
2023/07/29 11:46:48;;;;;;;;;;;;;;;27.64;52.82;100647.25;4844474;28;119284;-73
2023/07/29 11:49:16;;;;;;;;;;;;;;;27.55;52.93;100648.38;4849303;29;123972;-73
2023/07/29 11:51:43;;;;;;;;;;;;;;;27.48;53.07;100652.84;4847773;28;124048;-72
2023/07/29 11:54:10;;;;;;;;;;;;;;;27.43;53.16;100655.31;4843318;29;119611;-73
2023/07/29 11:56:37;;;;;;;;;;;;;;;27.41;53.11;100658.22;4852742;28;118483;-73
2023/07/29 11:59:04;;;;;;;;;;;;;;;27.43;52.98;100647.16;4844686;29;124460;-73
2023/07/29 12:01:32;;;;;;;;;;;;;;;27.47;53.34;100656.63;4849861;28;124307;-73
2023/07/29 12:04:00;;;;;;;;;;;;;;;27.50;53.03;100656.22;4846097;28;119789;-73
2023/07/29 12:06:27;;;;;;;;;;;;;;;27.51;53.01;100657.94;4842779;28;118690;-73
2023/07/29 12:08:54;;;;;;;;;;;;;;;27.53;53.31;100650.44;4847220;29;124245;-73
2023/07/29 12:11:21;;;;;;;;;;;;;;;27.60;53.44;100645.94;4843235;29;124276;-73
2023/07/29 12:13:48;;;;;;;;;;;;;;;27.73;53.54;100651.59;4845498;29;120372;-73
2023/07/29 12:16:18;;;;;;;;;;;;;;;27.93;53.34;100645.59;4845827;29;119939;-72
2023/07/29 12:18:46;;;;;;;;;;;;;;;28.09;53.54;100631.81;4846777;28;124650;-72
2023/07/29 12:21:13;;;;;;;;;;;;;;;28.25;53.40;100638.91;4848080;28;125114;-73
2023/07/29 12:23:41;;;;;;;;;;;;;;;28.36;53.05;100640.31;4851084;28;120324;-73
2023/07/29 12:26:08;;;;;;;;;;;;;;;28.39;52.89;100642.66;4847690;29;118970;-73
2023/07/29 12:28:35;;;;;;;;;;;;;;;28.32;52.67;100644.47;4849068;28;124496;-73
2023/07/29 12:31:06;;;;;;;;;;;;;;;28.22;52.52;100665.69;4847222;28;124755;-72
2023/07/29 12:33:35;;;;;;;;;;;;;;;28.11;52.38;100686.94;4849937;29;120210;-74